sensor_id;sensor_type;location;lat;lon;timestamp;temperature;humidity
64209;DHT22;50527;52.414;13.226;2022-12-10T00:01:07;1.00;98.80
64209;DHT22;50527;52.414;13.226;2022-12-10T00:03:34;1.00;99.40
64209;DHT22;50527;52.414;13.226;2022-12-10T00:06:04;1.00;97.90
64209;DHT22;50527;52.414;13.226;2022-12-10T00:08:30;1.10;96.50
64209;DHT22;50527;52.414;13.226;2022-12-10T00:10:56;0.90;97.20
64209;DHT22;50527;52.414;13.226;2022-12-10T00:13:22;0.90;97.50
64209;DHT22;50527;52.414;13.226;2022-12-10T00:15:47;0.80;97.70
64209;DHT22;50527;52.414;13.226;2022-12-10T00:18:13;0.80;98.10
64209;DHT22;50527;52.414;13.226;2022-12-10T00:20:38;0.90;98.30
64209;DHT22;50527;52.414;13.226;2022-12-10T00:23:04;0.90;98.10
64209;DHT22;50527;52.414;13.226;2022-12-10T00:25:31;0.90;97.80
64209;DHT22;50527;52.414;13.226;2022-12-10T00:27:59;0.90;98.30
64209;DHT22;50527;52.414;13.226;2022-12-10T00:30:25;0.90;98.90
64209;DHT22;50527;52.414;13.226;2022-12-10T00:32:50;1.00;98.40
64209;DHT22;50527;52.414;13.226;2022-12-10T00:35:16;1.00;98.00
64209;DHT22;50527;52.414;13.226;2022-12-10T00:37:41;1.00;97.80
64209;DHT22;50527;52.414;13.226;2022-12-10T00:40:11;0.90;98.70
64209;DHT22;50527;52.414;13.226;2022-12-10T00:42:37;0.90;98.60
64209;DHT22;50527;52.414;13.226;2022-12-10T00:45:04;1.00;97.90
64209;DHT22;50527;52.414;13.226;2022-12-10T00:47:29;0.90;98.00
64209;DHT22;50527;52.414;13.226;2022-12-10T00:49:55;1.00;97.60
64209;DHT22;50527;52.414;13.226;2022-12-10T00:52:20;0.90;97.30
64209;DHT22;50527;52.414;13.226;2022-12-10T00:54:46;0.90;97.40
64209;DHT22;50527;52.414;13.226;2022-12-10T00:57:11;0.90;97.10
64209;DHT22;50527;52.414;13.226;2022-12-10T00:59:37;0.80;97.10
64209;DHT22;50527;52.414;13.226;2022-12-10T01:02:02;0.80;97.10
64209;DHT22;50527;52.414;13.226;2022-12-10T01:04:28;0.90;96.70
64209;DHT22;50527;52.414;13.226;2022-12-10T01:06:54;0.80;97.40
64209;DHT22;50527;52.414;13.226;2022-12-10T01:09:25;0.80;97.20
64209;DHT22;50527;52.414;13.226;2022-12-10T01:11:52;0.70;97.10
64209;DHT22;50527;52.414;13.226;2022-12-10T01:14:27;0.70;97.70
64209;DHT22;50527;52.414;13.226;2022-12-10T01:16:55;0.70;97.90
64209;DHT22;50527;52.414;13.226;2022-12-10T01:19:21;0.80;97.50
64209;DHT22;50527;52.414;13.226;2022-12-10T01:21:50;0.70;97.40
64209;DHT22;50527;52.414;13.226;2022-12-10T01:24:16;0.70;97.30
64209;DHT22;50527;52.414;13.226;2022-12-10T01:26:41;0.70;97.50
64209;DHT22;50527;52.414;13.226;2022-12-10T01:29:07;0.70;97.50
64209;DHT22;50527;52.414;13.226;2022-12-10T01:31:35;0.70;97.80
64209;DHT22;50527;52.414;13.226;2022-12-10T01:34:01;0.70;97.50
64209;DHT22;50527;52.414;13.226;2022-12-10T01:36:33;0.70;97.40
64209;DHT22;50527;52.414;13.226;2022-12-10T01:38:59;0.70;96.90
64209;DHT22;50527;52.414;13.226;2022-12-10T01:41:39;0.80;96.80
64209;DHT22;50527;52.414;13.226;2022-12-10T01:46:38;0.80;96.50
64209;DHT22;50527;52.414;13.226;2022-12-10T01:49:06;0.70;96.70
64209;DHT22;50527;52.414;13.226;2022-12-10T01:51:34;0.70;97.30
64209;DHT22;50527;52.414;13.226;2022-12-10T01:54:06;0.70;96.90
64209;DHT22;50527;52.414;13.226;2022-12-10T01:56:44;0.70;96.70
64209;DHT22;50527;52.414;13.226;2022-12-10T01:59:11;0.70;96.80
64209;DHT22;50527;52.414;13.226;2022-12-10T02:02:11;0.70;96.60
64209;DHT22;50527;52.414;13.226;2022-12-10T02:09:59;0.70;96.90
64209;DHT22;50527;52.414;13.226;2022-12-10T02:12:37;0.70;96.40
64209;DHT22;50527;52.414;13.226;2022-12-10T02:15:22;0.70;96.70
64209;DHT22;50527;52.414;13.226;2022-12-10T02:17:53;0.70;96.40
64209;DHT22;50527;52.414;13.226;2022-12-10T02:20:29;0.60;97.10
64209;DHT22;50527;52.414;13.226;2022-12-10T02:23:09;0.60;97.80
64209;DHT22;50527;52.414;13.226;2022-12-10T02:28:38;0.60;97.30
64209;DHT22;50527;52.414;13.226;2022-12-10T02:31:06;0.50;98.40
64209;DHT22;50527;52.414;13.226;2022-12-10T02:33:34;0.40;98.10
64209;DHT22;50527;52.414;13.226;2022-12-10T02:36:02;0.40;98.50
64209;DHT22;50527;52.414;13.226;2022-12-10T02:38:32;0.40;97.90
64209;DHT22;50527;52.414;13.226;2022-12-10T02:41:14;0.40;98.20
64209;DHT22;50527;52.414;13.226;2022-12-10T02:43:40;0.40;98.90
64209;DHT22;50527;52.414;13.226;2022-12-10T02:46:07;0.50;98.50
64209;DHT22;50527;52.414;13.226;2022-12-10T02:48:34;0.50;98.40
64209;DHT22;50527;52.414;13.226;2022-12-10T02:51:00;0.50;98.70
64209;DHT22;50527;52.414;13.226;2022-12-10T02:53:25;0.40;99.00
64209;DHT22;50527;52.414;13.226;2022-12-10T02:58:56;0.30;99.00
64209;DHT22;50527;52.414;13.226;2022-12-10T03:07:18;0.30;99.80
64209;DHT22;50527;52.414;13.226;2022-12-10T03:09:56;0.40;99.90
64209;DHT22;50527;52.414;13.226;2022-12-10T03:12:34;0.40;99.90
64209;DHT22;50527;52.414;13.226;2022-12-10T03:15:03;0.40;99.90
64209;DHT22;50527;52.414;13.226;2022-12-10T03:17:31;0.40;99.80
64209;DHT22;50527;52.414;13.226;2022-12-10T03:19:57;0.50;99.90
64209;DHT22;50527;52.414;13.226;2022-12-10T03:22:24;0.50;98.20
64209;DHT22;50527;52.414;13.226;2022-12-10T03:24:50;0.50;97.30
64209;DHT22;50527;52.414;13.226;2022-12-10T03:27:17;0.40;97.10
64209;DHT22;50527;52.414;13.226;2022-12-10T03:29:49;0.40;98.30
64209;DHT22;50527;52.414;13.226;2022-12-10T03:32:16;0.40;98.60
64209;DHT22;50527;52.414;13.226;2022-12-10T03:34:43;0.40;98.80
64209;DHT22;50527;52.414;13.226;2022-12-10T03:37:10;0.40;98.50
64209;DHT22;50527;52.414;13.226;2022-12-10T03:39:37;0.40;98.70
64209;DHT22;50527;52.414;13.226;2022-12-10T03:42:04;0.40;98.50
64209;DHT22;50527;52.414;13.226;2022-12-10T03:44:32;0.50;98.10
64209;DHT22;50527;52.414;13.226;2022-12-10T03:46:58;0.40;97.90
64209;DHT22;50527;52.414;13.226;2022-12-10T03:49:24;0.40;98.00
64209;DHT22;50527;52.414;13.226;2022-12-10T03:51:50;0.50;97.40
64209;DHT22;50527;52.414;13.226;2022-12-10T03:54:16;0.40;97.70
64209;DHT22;50527;52.414;13.226;2022-12-10T03:56:41;0.40;97.80
64209;DHT22;50527;52.414;13.226;2022-12-10T03:59:07;0.40;98.40
64209;DHT22;50527;52.414;13.226;2022-12-10T04:01:33;0.40;98.20
64209;DHT22;50527;52.414;13.226;2022-12-10T04:03:58;0.40;98.20
64209;DHT22;50527;52.414;13.226;2022-12-10T04:06:24;0.40;98.70
64209;DHT22;50527;52.414;13.226;2022-12-10T04:08:49;0.40;98.40
64209;DHT22;50527;52.414;13.226;2022-12-10T04:11:16;0.40;98.70
64209;DHT22;50527;52.414;13.226;2022-12-10T04:13:42;0.40;98.10
64209;DHT22;50527;52.414;13.226;2022-12-10T04:16:27;0.40;98.60
64209;DHT22;50527;52.414;13.226;2022-12-10T04:19:11;0.50;98.30
64209;DHT22;50527;52.414;13.226;2022-12-10T04:21:38;0.40;97.60
64209;DHT22;50527;52.414;13.226;2022-12-10T04:24:25;0.40;98.00
64209;DHT22;50527;52.414;13.226;2022-12-10T04:27:12;0.40;98.30
64209;DHT22;50527;52.414;13.226;2022-12-10T04:29:38;0.40;98.40
64209;DHT22;50527;52.414;13.226;2022-12-10T04:32:03;0.40;98.50
64209;DHT22;50527;52.414;13.226;2022-12-10T04:34:29;0.40;98.80
64209;DHT22;50527;52.414;13.226;2022-12-10T04:36:56;0.40;98.70
64209;DHT22;50527;52.414;13.226;2022-12-10T04:39:21;0.30;98.80
64209;DHT22;50527;52.414;13.226;2022-12-10T04:41:48;0.40;99.30
64209;DHT22;50527;52.414;13.226;2022-12-10T04:44:14;0.40;99.00
64209;DHT22;50527;52.414;13.226;2022-12-10T04:46:40;0.40;98.80
64209;DHT22;50527;52.414;13.226;2022-12-10T04:49:06;0.40;99.00
64209;DHT22;50527;52.414;13.226;2022-12-10T04:51:32;0.40;99.30
64209;DHT22;50527;52.414;13.226;2022-12-10T04:53:58;0.30;98.90
64209;DHT22;50527;52.414;13.226;2022-12-10T04:56:23;0.40;99.10
64209;DHT22;50527;52.414;13.226;2022-12-10T04:58:49;0.30;98.80
64209;DHT22;50527;52.414;13.226;2022-12-10T05:01:15;0.30;99.10
64209;DHT22;50527;52.414;13.226;2022-12-10T05:03:40;0.30;99.00
64209;DHT22;50527;52.414;13.226;2022-12-10T05:06:11;0.30;99.00
64209;DHT22;50527;52.414;13.226;2022-12-10T05:08:38;0.30;99.00
64209;DHT22;50527;52.414;13.226;2022-12-10T05:11:07;0.20;99.00
64209;DHT22;50527;52.414;13.226;2022-12-10T05:13:33;0.30;99.40
64209;DHT22;50527;52.414;13.226;2022-12-10T05:16:01;0.30;99.40
64209;DHT22;50527;52.414;13.226;2022-12-10T05:18:27;0.30;99.30
64209;DHT22;50527;52.414;13.226;2022-12-10T05:20:53;0.30;99.40
64209;DHT22;50527;52.414;13.226;2022-12-10T05:23:18;0.40;99.50
64209;DHT22;50527;52.414;13.226;2022-12-10T05:26:02;0.40;99.60
64209;DHT22;50527;52.414;13.226;2022-12-10T05:28:34;0.40;99.50
64209;DHT22;50527;52.414;13.226;2022-12-10T05:31:00;0.40;99.10
64209;DHT22;50527;52.414;13.226;2022-12-10T05:33:26;0.40;99.00
64209;DHT22;50527;52.414;13.226;2022-12-10T05:36:00;0.40;99.20
64209;DHT22;50527;52.414;13.226;2022-12-10T05:38:26;0.40;99.10
64209;DHT22;50527;52.414;13.226;2022-12-10T05:40:53;0.40;99.40
64209;DHT22;50527;52.414;13.226;2022-12-10T05:43:19;0.30;98.90
64209;DHT22;50527;52.414;13.226;2022-12-10T05:45:45;0.30;99.50
64209;DHT22;50527;52.414;13.226;2022-12-10T05:48:12;0.30;99.50
64209;DHT22;50527;52.414;13.226;2022-12-10T05:50:38;0.30;99.60
64209;DHT22;50527;52.414;13.226;2022-12-10T05:53:04;0.40;99.20
64209;DHT22;50527;52.414;13.226;2022-12-10T05:55:30;0.40;99.10
64209;DHT22;50527;52.414;13.226;2022-12-10T05:57:58;0.40;98.80
64209;DHT22;50527;52.414;13.226;2022-12-10T06:00:24;0.40;99.00
64209;DHT22;50527;52.414;13.226;2022-12-10T06:02:50;0.40;99.70
64209;DHT22;50527;52.414;13.226;2022-12-10T06:05:16;0.40;99.60
64209;DHT22;50527;52.414;13.226;2022-12-10T06:07:41;0.50;99.10
64209;DHT22;50527;52.414;13.226;2022-12-10T06:10:07;0.50;99.00
64209;DHT22;50527;52.414;13.226;2022-12-10T06:12:33;0.40;98.90
64209;DHT22;50527;52.414;13.226;2022-12-10T06:14:58;0.40;98.90
64209;DHT22;50527;52.414;13.226;2022-12-10T06:17:23;0.40;99.00
64209;DHT22;50527;52.414;13.226;2022-12-10T06:19:49;0.40;99.20
64209;DHT22;50527;52.414;13.226;2022-12-10T06:22:14;0.40;99.80
64209;DHT22;50527;52.414;13.226;2022-12-10T06:24:40;0.50;99.60
64209;DHT22;50527;52.414;13.226;2022-12-10T06:27:05;0.50;98.30
64209;DHT22;50527;52.414;13.226;2022-12-10T06:29:31;0.50;98.30
64209;DHT22;50527;52.414;13.226;2022-12-10T06:31:56;0.40;98.70
64209;DHT22;50527;52.414;13.226;2022-12-10T06:34:22;0.50;99.30
64209;DHT22;50527;52.414;13.226;2022-12-10T06:36:47;0.40;99.20
64209;DHT22;50527;52.414;13.226;2022-12-10T06:39:13;0.40;98.90
64209;DHT22;50527;52.414;13.226;2022-12-10T06:41:38;0.50;98.80
64209;DHT22;50527;52.414;13.226;2022-12-10T06:44:07;0.50;98.60
64209;DHT22;50527;52.414;13.226;2022-12-10T06:46:32;0.50;98.00
64209;DHT22;50527;52.414;13.226;2022-12-10T06:48:58;0.50;98.40
64209;DHT22;50527;52.414;13.226;2022-12-10T06:51:24;0.50;98.70
64209;DHT22;50527;52.414;13.226;2022-12-10T06:53:49;0.50;99.10
64209;DHT22;50527;52.414;13.226;2022-12-10T06:56:17;0.50;98.90
64209;DHT22;50527;52.414;13.226;2022-12-10T06:58:44;0.50;99.10
64209;DHT22;50527;52.414;13.226;2022-12-10T07:01:13;0.50;99.00
64209;DHT22;50527;52.414;13.226;2022-12-10T07:03:39;0.50;98.80
64209;DHT22;50527;52.414;13.226;2022-12-10T07:06:05;0.50;98.40
64209;DHT22;50527;52.414;13.226;2022-12-10T07:08:31;0.60;98.30
64209;DHT22;50527;52.414;13.226;2022-12-10T07:10:57;0.50;98.10
64209;DHT22;50527;52.414;13.226;2022-12-10T07:13:23;0.50;98.40
64209;DHT22;50527;52.414;13.226;2022-12-10T07:15:49;0.40;98.10
64209;DHT22;50527;52.414;13.226;2022-12-10T07:18:14;0.50;98.80
64209;DHT22;50527;52.414;13.226;2022-12-10T07:20:40;0.50;98.70
64209;DHT22;50527;52.414;13.226;2022-12-10T07:23:05;0.50;98.60
64209;DHT22;50527;52.414;13.226;2022-12-10T07:25:32;0.50;98.90
64209;DHT22;50527;52.414;13.226;2022-12-10T07:27:58;0.50;98.90
64209;DHT22;50527;52.414;13.226;2022-12-10T07:30:23;0.50;99.30
64209;DHT22;50527;52.414;13.226;2022-12-10T07:32:49;0.60;98.90
64209;DHT22;50527;52.414;13.226;2022-12-10T07:35:14;0.60;98.90
64209;DHT22;50527;52.414;13.226;2022-12-10T07:37:40;0.60;99.20
64209;DHT22;50527;52.414;13.226;2022-12-10T07:40:06;0.60;98.80
64209;DHT22;50527;52.414;13.226;2022-12-10T07:42:31;0.60;98.10
64209;DHT22;50527;52.414;13.226;2022-12-10T07:44:57;0.60;97.70
64209;DHT22;50527;52.414;13.226;2022-12-10T07:47:22;0.60;97.60
64209;DHT22;50527;52.414;13.226;2022-12-10T07:49:48;0.60;96.90
64209;DHT22;50527;52.414;13.226;2022-12-10T07:52:13;0.60;97.10
64209;DHT22;50527;52.414;13.226;2022-12-10T07:54:38;0.60;96.00
64209;DHT22;50527;52.414;13.226;2022-12-10T07:57:04;0.60;97.10
64209;DHT22;50527;52.414;13.226;2022-12-10T07:59:30;0.60;97.10
64209;DHT22;50527;52.414;13.226;2022-12-10T08:01:56;0.60;97.00
64209;DHT22;50527;52.414;13.226;2022-12-10T08:04:21;0.60;97.50
64209;DHT22;50527;52.414;13.226;2022-12-10T08:06:47;0.60;97.10
64209;DHT22;50527;52.414;13.226;2022-12-10T08:09:13;0.70;97.00
64209;DHT22;50527;52.414;13.226;2022-12-10T08:11:38;0.70;96.00
64209;DHT22;50527;52.414;13.226;2022-12-10T08:14:04;0.70;95.20
64209;DHT22;50527;52.414;13.226;2022-12-10T08:16:29;0.70;95.40
64209;DHT22;50527;52.414;13.226;2022-12-10T08:18:58;0.70;94.90
64209;DHT22;50527;52.414;13.226;2022-12-10T08:21:26;0.80;95.30
64209;DHT22;50527;52.414;13.226;2022-12-10T08:23:53;0.80;94.00
64209;DHT22;50527;52.414;13.226;2022-12-10T08:26:21;0.80;93.60
64209;DHT22;50527;52.414;13.226;2022-12-10T08:28:48;0.80;94.10
64209;DHT22;50527;52.414;13.226;2022-12-10T08:31:15;0.90;94.20
64209;DHT22;50527;52.414;13.226;2022-12-10T08:33:41;0.90;93.20
64209;DHT22;50527;52.414;13.226;2022-12-10T08:36:08;1.00;92.10
64209;DHT22;50527;52.414;13.226;2022-12-10T08:38:34;0.80;92.60
64209;DHT22;50527;52.414;13.226;2022-12-10T08:41:09;0.90;92.60
64209;DHT22;50527;52.414;13.226;2022-12-10T08:43:34;0.80;93.50
64209;DHT22;50527;52.414;13.226;2022-12-10T08:46:00;0.90;92.50
64209;DHT22;50527;52.414;13.226;2022-12-10T08:48:26;0.80;93.00
64209;DHT22;50527;52.414;13.226;2022-12-10T08:50:52;0.90;93.00
64209;DHT22;50527;52.414;13.226;2022-12-10T08:53:17;0.90;92.60
64209;DHT22;50527;52.414;13.226;2022-12-10T08:55:43;0.90;92.00
64209;DHT22;50527;52.414;13.226;2022-12-10T08:58:09;0.90;92.10
64209;DHT22;50527;52.414;13.226;2022-12-10T09:00:35;0.90;92.30
64209;DHT22;50527;52.414;13.226;2022-12-10T09:03:01;0.80;92.50
64209;DHT22;50527;52.414;13.226;2022-12-10T09:05:26;0.80;92.90
64209;DHT22;50527;52.414;13.226;2022-12-10T09:07:51;0.90;92.60
64209;DHT22;50527;52.414;13.226;2022-12-10T09:10:17;0.90;93.50
64209;DHT22;50527;52.414;13.226;2022-12-10T09:12:43;0.90;93.60
64209;DHT22;50527;52.414;13.226;2022-12-10T09:15:10;1.10;91.70
64209;DHT22;50527;52.414;13.226;2022-12-10T09:17:37;1.10;91.60
64209;DHT22;50527;52.414;13.226;2022-12-10T09:20:04;1.00;92.30
64209;DHT22;50527;52.414;13.226;2022-12-10T09:22:30;1.00;92.60
64209;DHT22;50527;52.414;13.226;2022-12-10T09:24:55;1.10;92.00
64209;DHT22;50527;52.414;13.226;2022-12-10T09:27:21;1.10;91.20
64209;DHT22;50527;52.414;13.226;2022-12-10T09:29:46;1.00;90.90
64209;DHT22;50527;52.414;13.226;2022-12-10T09:32:12;1.00;91.60
64209;DHT22;50527;52.414;13.226;2022-12-10T09:34:37;0.90;91.90
64209;DHT22;50527;52.414;13.226;2022-12-10T09:37:03;1.10;91.50
64209;DHT22;50527;52.414;13.226;2022-12-10T09:39:28;1.10;92.00
64209;DHT22;50527;52.414;13.226;2022-12-10T09:42:03;1.10;91.90
64209;DHT22;50527;52.414;13.226;2022-12-10T09:44:52;1.10;91.90
64209;DHT22;50527;52.414;13.226;2022-12-10T09:47:24;1.10;92.30
64209;DHT22;50527;52.414;13.226;2022-12-10T09:50:03;1.20;92.10
64209;DHT22;50527;52.414;13.226;2022-12-10T09:52:40;1.20;92.50
64209;DHT22;50527;52.414;13.226;2022-12-10T09:55:14;1.30;91.50
64209;DHT22;50527;52.414;13.226;2022-12-10T09:57:48;1.30;90.50
64209;DHT22;50527;52.414;13.226;2022-12-10T10:00:25;1.30;89.40
64209;DHT22;50527;52.414;13.226;2022-12-10T10:02:53;1.30;90.30
64209;DHT22;50527;52.414;13.226;2022-12-10T10:05:26;1.30;90.20
64209;DHT22;50527;52.414;13.226;2022-12-10T10:07:54;1.30;90.10
64209;DHT22;50527;52.414;13.226;2022-12-10T10:10:24;1.20;90.80
64209;DHT22;50527;52.414;13.226;2022-12-10T10:15:34;1.10;91.70
64209;DHT22;50527;52.414;13.226;2022-12-10T10:18:35;1.10;91.90
64209;DHT22;50527;52.414;13.226;2022-12-10T10:21:05;1.20;92.60
64209;DHT22;50527;52.414;13.226;2022-12-10T10:23:32;1.20;93.80
64209;DHT22;50527;52.414;13.226;2022-12-10T10:25:58;1.20;92.60
64209;DHT22;50527;52.414;13.226;2022-12-10T10:28:24;1.30;92.10
64209;DHT22;50527;52.414;13.226;2022-12-10T10:30:51;1.40;92.20
64209;DHT22;50527;52.414;13.226;2022-12-10T10:33:17;1.40;92.70
64209;DHT22;50527;52.414;13.226;2022-12-10T10:35:44;1.30;93.00
64209;DHT22;50527;52.414;13.226;2022-12-10T10:38:20;1.40;93.10
64209;DHT22;50527;52.414;13.226;2022-12-10T10:40:57;1.50;93.20
64209;DHT22;50527;52.414;13.226;2022-12-10T10:43:26;1.50;91.10
64209;DHT22;50527;52.414;13.226;2022-12-10T10:45:59;1.50;91.60
64209;DHT22;50527;52.414;13.226;2022-12-10T10:48:27;1.50;91.80
64209;DHT22;50527;52.414;13.226;2022-12-10T10:50:55;1.50;91.20
64209;DHT22;50527;52.414;13.226;2022-12-10T10:53:42;1.40;92.00
64209;DHT22;50527;52.414;13.226;2022-12-10T10:56:17;1.50;92.20
64209;DHT22;50527;52.414;13.226;2022-12-10T10:58:52;1.70;90.50
64209;DHT22;50527;52.414;13.226;2022-12-10T11:01:18;1.80;89.10
64209;DHT22;50527;52.414;13.226;2022-12-10T11:03:48;1.80;88.70
64209;DHT22;50527;52.414;13.226;2022-12-10T11:06:15;1.70;90.00
64209;DHT22;50527;52.414;13.226;2022-12-10T11:08:43;1.70;90.50
64209;DHT22;50527;52.414;13.226;2022-12-10T11:11:19;1.70;90.40
64209;DHT22;50527;52.414;13.226;2022-12-10T11:13:45;1.80;89.70
64209;DHT22;50527;52.414;13.226;2022-12-10T11:16:24;1.80;88.40
64209;DHT22;50527;52.414;13.226;2022-12-10T11:18:59;1.90;88.00
64209;DHT22;50527;52.414;13.226;2022-12-10T11:21:29;1.80;88.00
64209;DHT22;50527;52.414;13.226;2022-12-10T11:23:55;1.80;88.00
64209;DHT22;50527;52.414;13.226;2022-12-10T11:26:31;1.70;89.70
64209;DHT22;50527;52.414;13.226;2022-12-10T11:29:20;1.80;87.80
64209;DHT22;50527;52.414;13.226;2022-12-10T11:32:05;1.70;89.30
64209;DHT22;50527;52.414;13.226;2022-12-10T11:34:44;1.70;88.80
64209;DHT22;50527;52.414;13.226;2022-12-10T11:37:33;1.70;89.00
64209;DHT22;50527;52.414;13.226;2022-12-10T11:42:59;1.70;90.30
64209;DHT22;50527;52.414;13.226;2022-12-10T11:51:53;1.80;90.30
64209;DHT22;50527;52.414;13.226;2022-12-10T11:56:34;1.90;89.10
64209;DHT22;50527;52.414;13.226;2022-12-10T11:59:16;1.90;90.50
64209;DHT22;50527;52.414;13.226;2022-12-10T12:02:24;1.70;91.20
64209;DHT22;50527;52.414;13.226;2022-12-10T12:05:35;1.80;90.30
64209;DHT22;50527;52.414;13.226;2022-12-10T12:11:01;1.70;90.70
64209;DHT22;50527;52.414;13.226;2022-12-10T12:13:59;1.80;90.10
64209;DHT22;50527;52.414;13.226;2022-12-10T12:16:34;1.70;90.70
64209;DHT22;50527;52.414;13.226;2022-12-10T12:19:37;1.80;90.90
64209;DHT22;50527;52.414;13.226;2022-12-10T12:22:26;1.70;91.10
64209;DHT22;50527;52.414;13.226;2022-12-10T12:24:59;1.70;91.60
64209;DHT22;50527;52.414;13.226;2022-12-10T12:27:39;1.70;91.70
64209;DHT22;50527;52.414;13.226;2022-12-10T12:30:16;1.70;91.30
64209;DHT22;50527;52.414;13.226;2022-12-10T12:33:10;1.70;91.20
64209;DHT22;50527;52.414;13.226;2022-12-10T12:38:37;1.50;91.50
64209;DHT22;50527;52.414;13.226;2022-12-10T12:41:13;1.50;92.30
64209;DHT22;50527;52.414;13.226;2022-12-10T12:43:51;1.50;92.50
64209;DHT22;50527;52.414;13.226;2022-12-10T12:46:30;1.60;93.00
64209;DHT22;50527;52.414;13.226;2022-12-10T12:49:02;1.70;92.00
64209;DHT22;50527;52.414;13.226;2022-12-10T12:51:34;1.90;90.90
64209;DHT22;50527;52.414;13.226;2022-12-10T12:54:01;1.70;90.40
64209;DHT22;50527;52.414;13.226;2022-12-10T12:56:53;1.80;90.40
64209;DHT22;50527;52.414;13.226;2022-12-10T13:05:18;1.80;90.90
64209;DHT22;50527;52.414;13.226;2022-12-10T13:11:15;1.80;90.70
64209;DHT22;50527;52.414;13.226;2022-12-10T13:22:39;1.60;90.60
64209;DHT22;50527;52.414;13.226;2022-12-10T13:25:09;1.70;91.10
64209;DHT22;50527;52.414;13.226;2022-12-10T13:27:35;1.70;90.60
64209;DHT22;50527;52.414;13.226;2022-12-10T13:43:28;1.50;90.30
64209;DHT22;50527;52.414;13.226;2022-12-10T13:46:26;1.50;89.00
64209;DHT22;50527;52.414;13.226;2022-12-10T13:48:54;1.40;90.30
64209;DHT22;50527;52.414;13.226;2022-12-10T13:51:43;1.30;91.10
64209;DHT22;50527;52.414;13.226;2022-12-10T13:54:32;1.40;91.20
64209;DHT22;50527;52.414;13.226;2022-12-10T13:59:57;1.50;91.40
64209;DHT22;50527;52.414;13.226;2022-12-10T14:05:55;1.50;90.00
64209;DHT22;50527;52.414;13.226;2022-12-10T14:08:28;1.50;89.90
64209;DHT22;50527;52.414;13.226;2022-12-10T14:10:56;1.40;90.50
64209;DHT22;50527;52.414;13.226;2022-12-10T14:13:34;1.40;90.50
64209;DHT22;50527;52.414;13.226;2022-12-10T14:16:02;1.30;90.90
64209;DHT22;50527;52.414;13.226;2022-12-10T14:18:30;1.40;90.90
64209;DHT22;50527;52.414;13.226;2022-12-10T14:20:56;1.40;90.30
64209;DHT22;50527;52.414;13.226;2022-12-10T14:23:31;1.40;90.00
64209;DHT22;50527;52.414;13.226;2022-12-10T14:26:15;1.40;90.20
64209;DHT22;50527;52.414;13.226;2022-12-10T14:28:48;1.30;90.70
64209;DHT22;50527;52.414;13.226;2022-12-10T14:31:17;1.30;91.30
64209;DHT22;50527;52.414;13.226;2022-12-10T14:33:44;1.20;91.70
64209;DHT22;50527;52.414;13.226;2022-12-10T14:36:38;1.20;92.00
64209;DHT22;50527;52.414;13.226;2022-12-10T14:39:02;1.30;91.50
64209;DHT22;50527;52.414;13.226;2022-12-10T14:41:30;1.20;90.80
64209;DHT22;50527;52.414;13.226;2022-12-10T14:43:58;1.30;90.80
64209;DHT22;50527;52.414;13.226;2022-12-10T14:46:28;1.30;90.40
64209;DHT22;50527;52.414;13.226;2022-12-10T14:48:55;1.20;90.80
64209;DHT22;50527;52.414;13.226;2022-12-10T14:51:24;1.20;90.60
64209;DHT22;50527;52.414;13.226;2022-12-10T14:53:51;1.10;91.20
64209;DHT22;50527;52.414;13.226;2022-12-10T14:56:29;1.10;91.10
64209;DHT22;50527;52.414;13.226;2022-12-10T14:59:39;1.20;91.10
64209;DHT22;50527;52.414;13.226;2022-12-10T15:02:16;1.20;92.30
64209;DHT22;50527;52.414;13.226;2022-12-10T15:04:45;1.10;92.50
64209;DHT22;50527;52.414;13.226;2022-12-10T15:07:14;1.20;92.30
64209;DHT22;50527;52.414;13.226;2022-12-10T15:09:42;1.20;92.10
64209;DHT22;50527;52.414;13.226;2022-12-10T15:12:33;1.10;92.50
64209;DHT22;50527;52.414;13.226;2022-12-10T15:15:47;1.10;93.30
64209;DHT22;50527;52.414;13.226;2022-12-10T15:18:16;1.20;92.10
64209;DHT22;50527;52.414;13.226;2022-12-10T15:20:50;1.20;93.40
64209;DHT22;50527;52.414;13.226;2022-12-10T15:28:31;1.20;93.90
64209;DHT22;50527;52.414;13.226;2022-12-10T15:31:09;1.20;93.70
64209;DHT22;50527;52.414;13.226;2022-12-10T15:33:48;1.20;92.50
64209;DHT22;50527;52.414;13.226;2022-12-10T15:39:04;1.10;93.10
64209;DHT22;50527;52.414;13.226;2022-12-10T15:47:08;1.30;91.60
64209;DHT22;50527;52.414;13.226;2022-12-10T15:49:34;1.20;91.70
64209;DHT22;50527;52.414;13.226;2022-12-10T15:52:00;1.30;91.00
64209;DHT22;50527;52.414;13.226;2022-12-10T15:54:33;1.30;91.00
64209;DHT22;50527;52.414;13.226;2022-12-10T15:57:00;1.20;91.10
64209;DHT22;50527;52.414;13.226;2022-12-10T15:59:25;1.30;90.80
64209;DHT22;50527;52.414;13.226;2022-12-10T16:01:51;1.20;91.50
64209;DHT22;50527;52.414;13.226;2022-12-10T16:04:16;1.10;91.40
64209;DHT22;50527;52.414;13.226;2022-12-10T16:06:42;1.20;91.60
64209;DHT22;50527;52.414;13.226;2022-12-10T16:09:09;1.10;91.40
64209;DHT22;50527;52.414;13.226;2022-12-10T16:11:34;1.20;90.20
64209;DHT22;50527;52.414;13.226;2022-12-10T16:14:00;1.10;91.20
64209;DHT22;50527;52.414;13.226;2022-12-10T16:16:26;1.10;91.60
64209;DHT22;50527;52.414;13.226;2022-12-10T16:18:52;1.20;90.90
64209;DHT22;50527;52.414;13.226;2022-12-10T16:21:17;1.20;90.70
64209;DHT22;50527;52.414;13.226;2022-12-10T16:23:43;1.10;91.10
64209;DHT22;50527;52.414;13.226;2022-12-10T16:26:14;1.00;92.10
64209;DHT22;50527;52.414;13.226;2022-12-10T16:28:40;1.00;92.50
64209;DHT22;50527;52.414;13.226;2022-12-10T16:31:11;1.00;92.30
64209;DHT22;50527;52.414;13.226;2022-12-10T16:33:36;1.00;92.80
64209;DHT22;50527;52.414;13.226;2022-12-10T16:36:02;1.00;93.70
64209;DHT22;50527;52.414;13.226;2022-12-10T16:38:27;1.00;93.50
64209;DHT22;50527;52.414;13.226;2022-12-10T16:40:53;1.00;93.40
64209;DHT22;50527;52.414;13.226;2022-12-10T16:43:20;1.10;93.60
64209;DHT22;50527;52.414;13.226;2022-12-10T16:45:46;1.00;93.50
64209;DHT22;50527;52.414;13.226;2022-12-10T16:48:12;1.00;93.40
64209;DHT22;50527;52.414;13.226;2022-12-10T16:50:38;1.00;93.70
64209;DHT22;50527;52.414;13.226;2022-12-10T16:53:16;1.00;93.40
64209;DHT22;50527;52.414;13.226;2022-12-10T16:55:41;1.10;93.50
64209;DHT22;50527;52.414;13.226;2022-12-10T16:58:14;1.10;93.30
64209;DHT22;50527;52.414;13.226;2022-12-10T17:00:41;1.10;93.00
64209;DHT22;50527;52.414;13.226;2022-12-10T17:03:11;1.20;91.10
64209;DHT22;50527;52.414;13.226;2022-12-10T17:05:49;1.10;91.70
64209;DHT22;50527;52.414;13.226;2022-12-10T17:08:15;1.10;92.30
64209;DHT22;50527;52.414;13.226;2022-12-10T17:10:41;1.10;92.50
64209;DHT22;50527;52.414;13.226;2022-12-10T17:13:25;1.00;92.30
64209;DHT22;50527;52.414;13.226;2022-12-10T17:15:54;1.00;92.20
64209;DHT22;50527;52.414;13.226;2022-12-10T17:18:20;1.00;93.30